sensor_id;sensor_type;location;lat;lon;timestamp;P1;durP1;ratioP1;P2;durP2;ratioP2
37657;SDS011;23500;53.268;8.308;2023-04-29T00:00:06;27.98;;;24.40;;
37657;SDS011;23500;53.268;8.308;2023-04-29T00:02:33;29.88;;;25.58;;
37657;SDS011;23500;53.268;8.308;2023-04-29T00:04:58;29.90;;;25.40;;
37657;SDS011;23500;53.268;8.308;2023-04-29T00:07:24;28.73;;;24.85;;
37657;SDS011;23500;53.268;8.308;2023-04-29T00:09:50;28.40;;;25.25;;
37657;SDS011;23500;53.268;8.308;2023-04-29T00:12:16;28.05;;;24.88;;
37657;SDS011;23500;53.268;8.308;2023-04-29T00:14:42;31.85;;;26.15;;
37657;SDS011;23500;53.268;8.308;2023-04-29T00:17:08;28.45;;;25.33;;
37657;SDS011;23500;53.268;8.308;2023-04-29T00:19:34;28.80;;;24.13;;
37657;SDS011;23500;53.268;8.308;2023-04-29T00:22:00;28.73;;;24.08;;
37657;SDS011;23500;53.268;8.308;2023-04-29T00:24:26;29.88;;;24.92;;
37657;SDS011;23500;53.268;8.308;2023-04-29T00:26:51;28.90;;;24.80;;
37657;SDS011;23500;53.268;8.308;2023-04-29T00:29:17;30.80;;;25.27;;
37657;SDS011;23500;53.268;8.308;2023-04-29T00:31:43;28.40;;;24.42;;
37657;SDS011;23500;53.268;8.308;2023-04-29T00:34:09;28.20;;;24.67;;
37657;SDS011;23500;53.268;8.308;2023-04-29T00:36:35;29.45;;;25.13;;
37657;SDS011;23500;53.268;8.308;2023-04-29T00:39:01;29.25;;;25.42;;
37657;SDS011;23500;53.268;8.308;2023-04-29T00:41:26;30.70;;;24.98;;
37657;SDS011;23500;53.268;8.308;2023-04-29T00:43:53;29.83;;;24.73;;
37657;SDS011;23500;53.268;8.308;2023-04-29T00:46:19;27.05;;;23.75;;
37657;SDS011;23500;53.268;8.308;2023-04-29T00:48:45;28.38;;;24.60;;
37657;SDS011;23500;53.268;8.308;2023-04-29T00:51:10;29.23;;;25.05;;
37657;SDS011;23500;53.268;8.308;2023-04-29T00:53:38;29.40;;;25.40;;
37657;SDS011;23500;53.268;8.308;2023-04-29T00:56:03;26.85;;;23.95;;
37657;SDS011;23500;53.268;8.308;2023-04-29T00:58:31;29.98;;;25.45;;
37657;SDS011;23500;53.268;8.308;2023-04-29T01:00:59;30.63;;;25.00;;
37657;SDS011;23500;53.268;8.308;2023-04-29T01:03:27;30.65;;;25.17;;
37657;SDS011;23500;53.268;8.308;2023-04-29T01:05:55;29.33;;;25.80;;
37657;SDS011;23500;53.268;8.308;2023-04-29T01:11:27;28.30;;;24.08;;
37657;SDS011;23500;53.268;8.308;2023-04-29T01:13:59;29.83;;;24.95;;
37657;SDS011;23500;53.268;8.308;2023-04-29T01:16:28;28.92;;;24.77;;
37657;SDS011;23500;53.268;8.308;2023-04-29T01:19:01;28.88;;;23.85;;
37657;SDS011;23500;53.268;8.308;2023-04-29T01:21:46;30.10;;;25.75;;
37657;SDS011;23500;53.268;8.308;2023-04-29T01:24:13;28.83;;;24.27;;
37657;SDS011;23500;53.268;8.308;2023-04-29T01:26:40;28.73;;;25.00;;
37657;SDS011;23500;53.268;8.308;2023-04-29T01:32:00;30.02;;;25.15;;
37657;SDS011;23500;53.268;8.308;2023-04-29T01:34:41;29.98;;;24.85;;
37657;SDS011;23500;53.268;8.308;2023-04-29T01:37:17;29.35;;;25.48;;
37657;SDS011;23500;53.268;8.308;2023-04-29T01:42:38;28.08;;;24.10;;
37657;SDS011;23500;53.268;8.308;2023-04-29T01:45:07;31.23;;;25.75;;
37657;SDS011;23500;53.268;8.308;2023-04-29T01:47:36;29.10;;;25.27;;
37657;SDS011;23500;53.268;8.308;2023-04-29T01:50:03;30.45;;;25.73;;
37657;SDS011;23500;53.268;8.308;2023-04-29T01:52:29;27.90;;;24.88;;
37657;SDS011;23500;53.268;8.308;2023-04-29T01:54:54;28.50;;;24.45;;
37657;SDS011;23500;53.268;8.308;2023-04-29T01:57:21;28.85;;;24.83;;
37657;SDS011;23500;53.268;8.308;2023-04-29T01:59:46;28.98;;;24.60;;
37657;SDS011;23500;53.268;8.308;2023-04-29T02:02:12;28.02;;;24.80;;
37657;SDS011;23500;53.268;8.308;2023-04-29T02:04:39;27.55;;;24.38;;
37657;SDS011;23500;53.268;8.308;2023-04-29T02:07:05;27.58;;;24.33;;
37657;SDS011;23500;53.268;8.308;2023-04-29T02:09:31;27.75;;;23.90;;
37657;SDS011;23500;53.268;8.308;2023-04-29T02:11:56;27.63;;;24.60;;
37657;SDS011;23500;53.268;8.308;2023-04-29T02:14:22;29.73;;;24.80;;
37657;SDS011;23500;53.268;8.308;2023-04-29T02:16:48;27.98;;;24.42;;
37657;SDS011;23500;53.268;8.308;2023-04-29T02:19:13;28.63;;;24.77;;
37657;SDS011;23500;53.268;8.308;2023-04-29T02:21:39;29.38;;;24.58;;
37657;SDS011;23500;53.268;8.308;2023-04-29T02:24:05;27.90;;;24.65;;
37657;SDS011;23500;53.268;8.308;2023-04-29T02:26:31;27.60;;;24.60;;
37657;SDS011;23500;53.268;8.308;2023-04-29T02:28:58;28.77;;;24.63;;
37657;SDS011;23500;53.268;8.308;2023-04-29T02:31:24;29.50;;;25.48;;
37657;SDS011;23500;53.268;8.308;2023-04-29T02:33:50;27.85;;;23.65;;
37657;SDS011;23500;53.268;8.308;2023-04-29T02:36:15;27.90;;;24.48;;
37657;SDS011;23500;53.268;8.308;2023-04-29T02:38:42;30.33;;;25.17;;
37657;SDS011;23500;53.268;8.308;2023-04-29T02:41:08;29.45;;;24.80;;
37657;SDS011;23500;53.268;8.308;2023-04-29T02:43:33;29.45;;;24.63;;
37657;SDS011;23500;53.268;8.308;2023-04-29T02:45:59;26.75;;;23.83;;
37657;SDS011;23500;53.268;8.308;2023-04-29T02:48:26;29.23;;;25.13;;
37657;SDS011;23500;53.268;8.308;2023-04-29T02:50:51;29.55;;;25.17;;
37657;SDS011;23500;53.268;8.308;2023-04-29T02:53:17;29.88;;;24.90;;
37657;SDS011;23500;53.268;8.308;2023-04-29T02:55:43;27.45;;;24.35;;
37657;SDS011;23500;53.268;8.308;2023-04-29T02:58:08;28.50;;;25.13;;
37657;SDS011;23500;53.268;8.308;2023-04-29T03:00:34;29.75;;;25.13;;
37657;SDS011;23500;53.268;8.308;2023-04-29T03:03:00;29.60;;;24.20;;
37657;SDS011;23500;53.268;8.308;2023-04-29T03:05:25;28.20;;;25.20;;
37657;SDS011;23500;53.268;8.308;2023-04-29T03:07:51;29.35;;;24.45;;
37657;SDS011;23500;53.268;8.308;2023-04-29T03:10:17;27.25;;;24.08;;
37657;SDS011;23500;53.268;8.308;2023-04-29T03:12:43;29.50;;;24.02;;
37657;SDS011;23500;53.268;8.308;2023-04-29T03:15:09;30.17;;;25.45;;
37657;SDS011;23500;53.268;8.308;2023-04-29T03:17:35;26.98;;;23.67;;
37657;SDS011;23500;53.268;8.308;2023-04-29T03:20:01;29.13;;;25.13;;
37657;SDS011;23500;53.268;8.308;2023-04-29T03:22:28;29.48;;;25.00;;
37657;SDS011;23500;53.268;8.308;2023-04-29T03:24:54;27.65;;;24.38;;
37657;SDS011;23500;53.268;8.308;2023-04-29T03:27:19;27.50;;;24.00;;
37657;SDS011;23500;53.268;8.308;2023-04-29T03:29:45;28.73;;;24.27;;
37657;SDS011;23500;53.268;8.308;2023-04-29T03:32:11;25.52;;;22.77;;
37657;SDS011;23500;53.268;8.308;2023-04-29T03:34:36;28.42;;;24.30;;
37657;SDS011;23500;53.268;8.308;2023-04-29T03:37:02;29.00;;;24.35;;
37657;SDS011;23500;53.268;8.308;2023-04-29T03:39:27;27.60;;;24.33;;
37657;SDS011;23500;53.268;8.308;2023-04-29T03:41:56;26.80;;;23.77;;
37657;SDS011;23500;53.268;8.308;2023-04-29T03:44:23;28.70;;;23.88;;
37657;SDS011;23500;53.268;8.308;2023-04-29T03:46:49;26.90;;;23.42;;
37657;SDS011;23500;53.268;8.308;2023-04-29T03:49:15;26.45;;;23.50;;
37657;SDS011;23500;53.268;8.308;2023-04-29T03:51:41;29.67;;;24.45;;
37657;SDS011;23500;53.268;8.308;2023-04-29T03:54:09;26.70;;;23.80;;
37657;SDS011;23500;53.268;8.308;2023-04-29T03:56:35;26.85;;;23.95;;
37657;SDS011;23500;53.268;8.308;2023-04-29T03:59:01;27.25;;;23.42;;
37657;SDS011;23500;53.268;8.308;2023-04-29T04:01:26;27.50;;;23.67;;
37657;SDS011;23500;53.268;8.308;2023-04-29T04:03:52;27.80;;;23.20;;
37657;SDS011;23500;53.268;8.308;2023-04-29T04:06:18;25.67;;;22.63;;
37657;SDS011;23500;53.268;8.308;2023-04-29T04:08:43;27.80;;;23.02;;
37657;SDS011;23500;53.268;8.308;2023-04-29T04:11:09;26.00;;;22.33;;
37657;SDS011;23500;53.268;8.308;2023-04-29T04:13:35;26.63;;;23.77;;
37657;SDS011;23500;53.268;8.308;2023-04-29T04:16:01;26.52;;;22.73;;
37657;SDS011;23500;53.268;8.308;2023-04-29T04:18:27;26.67;;;22.85;;
37657;SDS011;23500;53.268;8.308;2023-04-29T04:20:53;27.50;;;22.65;;
37657;SDS011;23500;53.268;8.308;2023-04-29T04:23:18;26.05;;;22.90;;
37657;SDS011;23500;53.268;8.308;2023-04-29T04:25:47;26.27;;;22.08;;
37657;SDS011;23500;53.268;8.308;2023-04-29T04:28:13;26.23;;;23.15;;
37657;SDS011;23500;53.268;8.308;2023-04-29T04:30:40;27.83;;;22.98;;
37657;SDS011;23500;53.268;8.308;2023-04-29T04:33:06;26.63;;;23.02;;
37657;SDS011;23500;53.268;8.308;2023-04-29T04:35:32;26.25;;;22.45;;
37657;SDS011;23500;53.268;8.308;2023-04-29T04:37:58;28.63;;;22.85;;
37657;SDS011;23500;53.268;8.308;2023-04-29T04:40:24;24.92;;;22.23;;
37657;SDS011;23500;53.268;8.308;2023-04-29T04:42:49;24.88;;;22.05;;
37657;SDS011;23500;53.268;8.308;2023-04-29T04:45:15;24.83;;;22.13;;
37657;SDS011;23500;53.268;8.308;2023-04-29T04:47:41;23.67;;;21.00;;
37657;SDS011;23500;53.268;8.308;2023-04-29T04:50:07;24.75;;;21.95;;
37657;SDS011;23500;53.268;8.308;2023-04-29T04:52:33;24.98;;;21.63;;
37657;SDS011;23500;53.268;8.308;2023-04-29T04:54:59;26.77;;;22.50;;
37657;SDS011;23500;53.268;8.308;2023-04-29T04:57:24;24.83;;;21.48;;
37657;SDS011;23500;53.268;8.308;2023-04-29T04:59:50;26.50;;;22.63;;
37657;SDS011;23500;53.268;8.308;2023-04-29T05:02:16;23.65;;;20.85;;
37657;SDS011;23500;53.268;8.308;2023-04-29T05:04:42;26.15;;;21.98;;
37657;SDS011;23500;53.268;8.308;2023-04-29T05:07:08;23.45;;;20.45;;
37657;SDS011;23500;53.268;8.308;2023-04-29T05:09:34;24.50;;;21.05;;
37657;SDS011;23500;53.268;8.308;2023-04-29T05:12:00;24.40;;;20.92;;
37657;SDS011;23500;53.268;8.308;2023-04-29T05:14:26;23.17;;;20.48;;
37657;SDS011;23500;53.268;8.308;2023-04-29T05:16:52;23.48;;;20.13;;
37657;SDS011;23500;53.268;8.308;2023-04-29T05:19:18;22.05;;;19.60;;
37657;SDS011;23500;53.268;8.308;2023-04-29T05:21:44;21.45;;;19.17;;
37657;SDS011;23500;53.268;8.308;2023-04-29T05:24:10;21.10;;;18.67;;
37657;SDS011;23500;53.268;8.308;2023-04-29T05:26:35;22.55;;;20.15;;
37657;SDS011;23500;53.268;8.308;2023-04-29T05:29:02;21.27;;;19.08;;
37657;SDS011;23500;53.268;8.308;2023-04-29T05:31:27;20.77;;;18.67;;
37657;SDS011;23500;53.268;8.308;2023-04-29T05:33:53;20.92;;;18.73;;
37657;SDS011;23500;53.268;8.308;2023-04-29T05:36:19;20.58;;;18.38;;
37657;SDS011;23500;53.268;8.308;2023-04-29T05:38:44;19.33;;;17.27;;
37657;SDS011;23500;53.268;8.308;2023-04-29T05:41:10;20.33;;;18.13;;
37657;SDS011;23500;53.268;8.308;2023-04-29T05:43:36;21.10;;;17.95;;
37657;SDS011;23500;53.268;8.308;2023-04-29T05:46:01;20.92;;;18.65;;
37657;SDS011;23500;53.268;8.308;2023-04-29T05:48:27;20.38;;;17.73;;
37657;SDS011;23500;53.268;8.308;2023-04-29T05:50:53;20.30;;;18.10;;
37657;SDS011;23500;53.268;8.308;2023-04-29T05:53:20;19.95;;;17.83;;
37657;SDS011;23500;53.268;8.308;2023-04-29T05:55:45;22.67;;;19.55;;
37657;SDS011;23500;53.268;8.308;2023-04-29T05:58:11;20.83;;;18.58;;
37657;SDS011;23500;53.268;8.308;2023-04-29T06:00:39;21.02;;;18.77;;
37657;SDS011;23500;53.268;8.308;2023-04-29T06:03:04;20.15;;;18.02;;
37657;SDS011;23500;53.268;8.308;2023-04-29T06:05:30;20.67;;;18.48;;
37657;SDS011;23500;53.268;8.308;2023-04-29T06:07:56;21.60;;;18.40;;
37657;SDS011;23500;53.268;8.308;2023-04-29T06:10:22;20.63;;;17.98;;
37657;SDS011;23500;53.268;8.308;2023-04-29T06:12:48;21.00;;;18.40;;
37657;SDS011;23500;53.268;8.308;2023-04-29T06:15:15;23.58;;;19.40;;
37657;SDS011;23500;53.268;8.308;2023-04-29T06:17:41;21.50;;;18.33;;
37657;SDS011;23500;53.268;8.308;2023-04-29T06:20:07;21.50;;;18.63;;
37657;SDS011;23500;53.268;8.308;2023-04-29T06:22:33;22.33;;;18.85;;
37657;SDS011;23500;53.268;8.308;2023-04-29T06:24:59;21.85;;;18.77;;
37657;SDS011;23500;53.268;8.308;2023-04-29T06:27:25;22.15;;;19.35;;
37657;SDS011;23500;53.268;8.308;2023-04-29T06:29:50;23.17;;;19.30;;
37657;SDS011;23500;53.268;8.308;2023-04-29T06:32:16;21.80;;;19.20;;
37657;SDS011;23500;53.268;8.308;2023-04-29T06:34:42;23.92;;;19.58;;
37657;SDS011;23500;53.268;8.308;2023-04-29T06:37:09;22.83;;;19.35;;
37657;SDS011;23500;53.268;8.308;2023-04-29T06:39:35;23.10;;;18.55;;
37657;SDS011;23500;53.268;8.308;2023-04-29T06:42:00;21.42;;;18.85;;
37657;SDS011;23500;53.268;8.308;2023-04-29T06:44:27;21.80;;;18.98;;
37657;SDS011;23500;53.268;8.308;2023-04-29T06:46:53;22.85;;;18.95;;
37657;SDS011;23500;53.268;8.308;2023-04-29T06:49:18;23.50;;;19.27;;
37657;SDS011;23500;53.268;8.308;2023-04-29T06:51:45;21.95;;;19.52;;
37657;SDS011;23500;53.268;8.308;2023-04-29T06:54:11;21.95;;;18.80;;
37657;SDS011;23500;53.268;8.308;2023-04-29T06:56:37;21.95;;;18.17;;
37657;SDS011;23500;53.268;8.308;2023-04-29T06:59:03;22.13;;;19.17;;
37657;SDS011;23500;53.268;8.308;2023-04-29T07:01:29;22.45;;;19.05;;
37657;SDS011;23500;53.268;8.308;2023-04-29T07:03:54;21.80;;;18.45;;
37657;SDS011;23500;53.268;8.308;2023-04-29T07:06:20;21.98;;;19.17;;
37657;SDS011;23500;53.268;8.308;2023-04-29T07:08:46;21.55;;;18.27;;
37657;SDS011;23500;53.268;8.308;2023-04-29T07:11:12;22.30;;;18.73;;
37657;SDS011;23500;53.268;8.308;2023-04-29T07:13:37;18.95;;;16.52;;
37657;SDS011;23500;53.268;8.308;2023-04-29T07:16:03;18.38;;;16.20;;
37657;SDS011;23500;53.268;8.308;2023-04-29T07:18:29;19.33;;;17.00;;
37657;SDS011;23500;53.268;8.308;2023-04-29T07:20:59;18.38;;;16.13;;
37657;SDS011;23500;53.268;8.308;2023-04-29T07:23:25;19.50;;;17.08;;
37657;SDS011;23500;53.268;8.308;2023-04-29T07:25:51;18.13;;;16.05;;
37657;SDS011;23500;53.268;8.308;2023-04-29T07:28:16;17.77;;;15.27;;
37657;SDS011;23500;53.268;8.308;2023-04-29T07:30:42;18.58;;;15.30;;
37657;SDS011;23500;53.268;8.308;2023-04-29T07:33:08;17.10;;;15.23;;
37657;SDS011;23500;53.268;8.308;2023-04-29T07:35:34;16.88;;;14.73;;
37657;SDS011;23500;53.268;8.308;2023-04-29T07:37:59;18.42;;;16.05;;
37657;SDS011;23500;53.268;8.308;2023-04-29T07:40:25;15.98;;;14.02;;
37657;SDS011;23500;53.268;8.308;2023-04-29T07:42:51;16.77;;;15.00;;
37657;SDS011;23500;53.268;8.308;2023-04-29T07:45:16;17.02;;;15.20;;
37657;SDS011;23500;53.268;8.308;2023-04-29T07:47:42;17.88;;;14.88;;
37657;SDS011;23500;53.268;8.308;2023-04-29T07:50:09;17.20;;;14.65;;
37657;SDS011;23500;53.268;8.308;2023-04-29T07:52:35;16.33;;;14.52;;
37657;SDS011;23500;53.268;8.308;2023-04-29T07:55:01;15.85;;;14.13;;
37657;SDS011;23500;53.268;8.308;2023-04-29T07:57:27;15.55;;;13.90;;
37657;SDS011;23500;53.268;8.308;2023-04-29T07:59:53;16.35;;;13.77;;
37657;SDS011;23500;53.268;8.308;2023-04-29T08:02:19;14.30;;;12.80;;
37657;SDS011;23500;53.268;8.308;2023-04-29T08:04:45;16.15;;;14.45;;
37657;SDS011;23500;53.268;8.308;2023-04-29T08:07:11;15.45;;;13.65;;
37657;SDS011;23500;53.268;8.308;2023-04-29T08:09:37;15.32;;;13.50;;
37657;SDS011;23500;53.268;8.308;2023-04-29T08:12:02;14.52;;;12.88;;
37657;SDS011;23500;53.268;8.308;2023-04-29T08:14:28;17.80;;;13.98;;
37657;SDS011;23500;53.268;8.308;2023-04-29T08:16:54;14.50;;;12.82;;
37657;SDS011;23500;53.268;8.308;2023-04-29T08:19:20;15.23;;;12.88;;
37657;SDS011;23500;53.268;8.308;2023-04-29T08:21:46;15.52;;;13.02;;
37657;SDS011;23500;53.268;8.308;2023-04-29T08:24:12;15.02;;;12.93;;
37657;SDS011;23500;53.268;8.308;2023-04-29T08:26:40;15.70;;;13.32;;
37657;SDS011;23500;53.268;8.308;2023-04-29T08:29:07;15.07;;;13.07;;
37657;SDS011;23500;53.268;8.308;2023-04-29T08:31:33;16.00;;;12.65;;
37657;SDS011;23500;53.268;8.308;2023-04-29T08:33:59;16.08;;;13.48;;
37657;SDS011;23500;53.268;8.308;2023-04-29T08:36:25;15.25;;;12.75;;
37657;SDS011;23500;53.268;8.308;2023-04-29T08:38:54;16.05;;;13.52;;
37657;SDS011;23500;53.268;8.308;2023-04-29T08:41:20;15.13;;;12.88;;
37657;SDS011;23500;53.268;8.308;2023-04-29T08:43:46;15.38;;;12.35;;
37657;SDS011;23500;53.268;8.308;2023-04-29T08:46:12;16.13;;;13.13;;
37657;SDS011;23500;53.268;8.308;2023-04-29T08:48:37;15.27;;;12.88;;
37657;SDS011;23500;53.268;8.308;2023-04-29T08:51:06;15.43;;;13.65;;
37657;SDS011;23500;53.268;8.308;2023-04-29T08:53:32;15.05;;;12.70;;
37657;SDS011;23500;53.268;8.308;2023-04-29T08:56:02;15.55;;;12.80;;
37657;SDS011;23500;53.268;8.308;2023-04-29T08:58:33;14.00;;;12.18;;
37657;SDS011;23500;53.268;8.308;2023-04-29T09:01:05;13.55;;;11.65;;
37657;SDS011;23500;53.268;8.308;2023-04-29T09:03:39;15.50;;;12.32;;
37657;SDS011;23500;53.268;8.308;2023-04-29T09:06:11;12.68;;;11.35;;
37657;SDS011;23500;53.268;8.308;2023-04-29T09:08:37;14.18;;;11.63;;
37657;SDS011;23500;53.268;8.308;2023-04-29T09:11:04;13.90;;;11.43;;
37657;SDS011;23500;53.268;8.308;2023-04-29T09:13:33;11.90;;;10.63;;
37657;SDS011;23500;53.268;8.308;2023-04-29T09:15:58;12.48;;;11.10;;
37657;SDS011;23500;53.268;8.308;2023-04-29T09:18:43;14.52;;;12.05;;
37657;SDS011;23500;53.268;8.308;2023-04-29T09:21:17;13.68;;;11.50;;
37657;SDS011;23500;53.268;8.308;2023-04-29T09:23:51;13.02;;;11.63;;
37657;SDS011;23500;53.268;8.308;2023-04-29T09:26:21;16.10;;;12.90;;
37657;SDS011;23500;53.268;8.308;2023-04-29T09:29:04;12.93;;;10.90;;
37657;SDS011;23500;53.268;8.308;2023-04-29T09:31:32;13.73;;;11.52;;
37657;SDS011;23500;53.268;8.308;2023-04-29T09:33:58;14.50;;;12.05;;
37657;SDS011;23500;53.268;8.308;2023-04-29T09:39:03;14.00;;;11.27;;
37657;SDS011;23500;53.268;8.308;2023-04-29T09:41:34;13.77;;;11.35;;
37657;SDS011;23500;53.268;8.308;2023-04-29T09:44:03;14.05;;;11.55;;
37657;SDS011;23500;53.268;8.308;2023-04-29T09:46:31;12.75;;;11.27;;
37657;SDS011;23500;53.268;8.308;2023-04-29T09:48:57;13.10;;;11.32;;
37657;SDS011;23500;53.268;8.308;2023-04-29T09:51:23;15.15;;;11.68;;
37657;SDS011;23500;53.268;8.308;2023-04-29T09:53:49;13.05;;;11.43;;
37657;SDS011;23500;53.268;8.308;2023-04-29T09:56:14;14.23;;;11.88;;
37657;SDS011;23500;53.268;8.308;2023-04-29T09:58:40;14.57;;;11.18;;
37657;SDS011;23500;53.268;8.308;2023-04-29T10:01:06;12.40;;;11.10;;
37657;SDS011;23500;53.268;8.308;2023-04-29T10:03:36;14.20;;;11.40;;
37657;SDS011;23500;53.268;8.308;2023-04-29T10:06:05;11.68;;;10.48;;
37657;SDS011;23500;53.268;8.308;2023-04-29T10:08:32;13.45;;;11.00;;
37657;SDS011;23500;53.268;8.308;2023-04-29T10:11:02;14.32;;;11.55;;
37657;SDS011;23500;53.268;8.308;2023-04-29T10:13:29;12.32;;;11.02;;
37657;SDS011;23500;53.268;8.308;2023-04-29T10:18:42;12.75;;;10.88;;
37657;SDS011;23500;53.268;8.308;2023-04-29T10:21:13;12.48;;;10.90;;
37657;SDS011;23500;53.268;8.308;2023-04-29T10:23:40;15.35;;;10.32;;
37657;SDS011;23500;53.268;8.308;2023-04-29T10:26:07;11.45;;;10.18;;
37657;SDS011;23500;53.268;8.308;2023-04-29T10:28:37;12.43;;;10.25;;
37657;SDS011;23500;53.268;8.308;2023-04-29T10:31:06;14.15;;;10.48;;
37657;SDS011;23500;53.268;8.308;2023-04-29T10:33:33;11.35;;;9.82;;
37657;SDS011;23500;53.268;8.308;2023-04-29T10:36:00;10.70;;;9.35;;
37657;SDS011;23500;53.268;8.308;2023-04-29T10:38:28;10.25;;;9.20;;
37657;SDS011;23500;53.268;8.308;2023-04-29T10:41:00;11.50;;;9.60;;
37657;SDS011;23500;53.268;8.308;2023-04-29T10:43:28;10.32;;;9.15;;
37657;SDS011;23500;53.268;8.308;2023-04-29T10:48:59;11.25;;;9.32;;
37657;SDS011;23500;53.268;8.308;2023-04-29T10:51:33;10.18;;;8.98;;
37657;SDS011;23500;53.268;8.308;2023-04-29T10:56:34;10.55;;;8.35;;
37657;SDS011;23500;53.268;8.308;2023-04-29T10:59:04;9.48;;;8.43;;
37657;SDS011;23500;53.268;8.308;2023-04-29T11:01:52;10.15;;;8.35;;
37657;SDS011;23500;53.268;8.308;2023-04-29T11:04:18;10.32;;;8.30;;
37657;SDS011;23500;53.268;8.308;2023-04-29T11:06:55;9.65;;;8.27;;
37657;SDS011;23500;53.268;8.308;2023-04-29T11:09:28;10.70;;;9.00;;
37657;SDS011;23500;53.268;8.308;2023-04-29T11:17:14;9.45;;;7.70;;
37657;SDS011;23500;53.268;8.308;2023-04-29T11:19:42;8.43;;;7.60;;
37657;SDS011;23500;53.268;8.308;2023-04-29T11:24:36;9.43;;;7.97;;
37657;SDS011;23500;53.268;8.308;2023-04-29T11:27:12;10.10;;;7.70;;
37657;SDS011;23500;53.268;8.308;2023-04-29T11:29:39;8.13;;;7.32;;
37657;SDS011;23500;53.268;8.308;2023-04-29T11:32:06;9.15;;;7.15;;
37657;SDS011;23500;53.268;8.308;2023-04-29T11:34:32;8.50;;;7.30;;
37657;SDS011;23500;53.268;8.308;2023-04-29T11:36:58;9.05;;;7.43;;
37657;SDS011;23500;53.268;8.308;2023-04-29T11:39:25;8.05;;;6.93;;
37657;SDS011;23500;53.268;8.308;2023-04-29T11:41:51;10.80;;;7.65;;
37657;SDS011;23500;53.268;8.308;2023-04-29T11:44:27;10.35;;;7.55;;
37657;SDS011;23500;53.268;8.308;2023-04-29T11:46:52;8.77;;;7.32;;
37657;SDS011;23500;53.268;8.308;2023-04-29T11:49:28;7.68;;;6.95;;
37657;SDS011;23500;53.268;8.308;2023-04-29T11:51:58;7.78;;;6.97;;
37657;SDS011;23500;53.268;8.308;2023-04-29T11:54:27;7.78;;;6.97;;
37657;SDS011;23500;53.268;8.308;2023-04-29T11:56:54;7.85;;;7.05;;
37657;SDS011;23500;53.268;8.308;2023-04-29T11:59:20;9.95;;;7.70;;
37657;SDS011;23500;53.268;8.308;2023-04-29T12:01:49;9.57;;;7.10;;
37657;SDS011;23500;53.268;8.308;2023-04-29T12:04:16;8.23;;;6.80;;
37657;SDS011;23500;53.268;8.308;2023-04-29T12:06:42;7.90;;;7.10;;
37657;SDS011;23500;53.268;8.308;2023-04-29T12:09:07;8.40;;;6.80;;
37657;SDS011;23500;53.268;8.308;2023-04-29T12:11:33;7.53;;;6.68;;
37657;SDS011;23500;53.268;8.308;2023-04-29T12:14:01;8.57;;;7.07;;
37657;SDS011;23500;53.268;8.308;2023-04-29T12:16:30;12.07;;;6.70;;
37657;SDS011;23500;53.268;8.308;2023-04-29T12:18:57;7.60;;;6.80;;
37657;SDS011;23500;53.268;8.308;2023-04-29T12:21:23;7.72;;;6.55;;
37657;SDS011;23500;53.268;8.308;2023-04-29T12:23:50;6.75;;;6.13;;
37657;SDS011;23500;53.268;8.308;2023-04-29T12:26:17;8.40;;;7.05;;
37657;SDS011;23500;53.268;8.308;2023-04-29T12:28:44;7.95;;;7.10;;
37657;SDS011;23500;53.268;8.308;2023-04-29T12:31:13;7.85;;;6.70;;
37657;SDS011;23500;53.268;8.308;2023-04-29T12:33:41;8.13;;;6.80;;
37657;SDS011;23500;53.268;8.308;2023-04-29T12:36:14;7.93;;;7.13;;
37657;SDS011;23500;53.268;8.308;2023-04-29T12:38:42;7.60;;;6.70;;
37657;SDS011;23500;53.268;8.308;2023-04-29T12:41:08;7.43;;;6.72;;
37657;SDS011;23500;53.268;8.308;2023-04-29T12:43:34;8.88;;;6.80;;
37657;SDS011;23500;53.268;8.308;2023-04-29T12:48:29;8.40;;;7.47;;
37657;SDS011;23500;53.268;8.308;2023-04-29T12:50:56;11.43;;;7.90;;
37657;SDS011;23500;53.268;8.308;2023-04-29T12:53:23;8.10;;;7.13;;
37657;SDS011;23500;53.268;8.308;2023-04-29T12:55:50;7.82;;;7.03;;
37657;SDS011;23500;53.268;8.308;2023-04-29T12:58:16;7.68;;;6.90;;
37657;SDS011;23500;53.268;8.308;2023-04-29T13:00:42;7.82;;;7.13;;
37657;SDS011;23500;53.268;8.308;2023-04-29T13:03:07;7.55;;;6.85;;
37657;SDS011;23500;53.268;8.308;2023-04-29T13:05:33;8.20;;;7.40;;
37657;SDS011;23500;53.268;8.308;2023-04-29T13:07:59;8.65;;;6.93;;
37657;SDS011;23500;53.268;8.308;2023-04-29T13:10:25;7.78;;;6.97;;
37657;SDS011;23500;53.268;8.308;2023-04-29T13:12:52;7.28;;;6.57;;
37657;SDS011;23500;53.268;8.308;2023-04-29T13:15:18;7.50;;;6.70;;
37657;SDS011;23500;53.268;8.308;2023-04-29T13:17:45;7.78;;;6.97;;
37657;SDS011;23500;53.268;8.308;2023-04-29T13:20:11;8.43;;;6.53;;
37657;SDS011;23500;53.268;8.308;2023-04-29T13:22:37;7.57;;;6.65;;
37657;SDS011;23500;53.268;8.308;2023-04-29T13:25:03;7.25;;;6.55;;
37657;SDS011;23500;53.268;8.308;2023-04-29T13:27:29;7.53;;;6.82;;
37657;SDS011;23500;53.268;8.308;2023-04-29T13:29:55;7.25;;;6.55;;
37657;SDS011;23500;53.268;8.308;2023-04-29T13:32:21;9.52;;;7.00;;
37657;SDS011;23500;53.268;8.308;2023-04-29T13:34:50;8.02;;;6.70;;
37657;SDS011;23500;53.268;8.308;2023-04-29T13:37:16;7.82;;;6.85;;
37657;SDS011;23500;53.268;8.308;2023-04-29T13:39:42;7.28;;;6.57;;
37657;SDS011;23500;53.268;8.308;2023-04-29T13:42:08;6.82;;;6.22;;
37657;SDS011;23500;53.268;8.308;2023-04-29T13:44:34;10.13;;;6.65;;
37657;SDS011;23500;53.268;8.308;2023-04-29T13:47:00;7.28;;;6.60;;
37657;SDS011;23500;53.268;8.308;2023-04-29T13:49:26;7.40;;;6.20;;
37657;SDS011;23500;53.268;8.308;2023-04-29T13:51:52;7.75;;;6.95;;
37657;SDS011;23500;53.268;8.308;2023-04-29T13:54:17;8.15;;;7.28;;
37657;SDS011;23500;53.268;8.308;2023-04-29T13:56:45;7.32;;;6.63;;
37657;SDS011;23500;53.268;8.308;2023-04-29T13:59:11;7.80;;;6.82;;
37657;SDS011;23500;53.268;8.308;2023-04-29T14:01:38;8.85;;;7.38;;
37657;SDS011;23500;53.268;8.308;2023-04-29T14:04:03;8.10;;;7.30;;
37657;SDS011;23500;53.268;8.308;2023-04-29T14:06:30;9.80;;;7.57;;
37657;SDS011;23500;53.268;8.308;2023-04-29T14:08:56;8.10;;;7.20;;
37657;SDS011;23500;53.268;8.308;2023-04-29T14:11:22;7.88;;;7.10;;
37657;SDS011;23500;53.268;8.308;2023-04-29T14:13:48;8.15;;;7.35;;
37657;SDS011;23500;53.268;8.308;2023-04-29T14:16:14;8.05;;;6.75;;
37657;SDS011;23500;53.268;8.308;2023-04-29T14:18:41;8.20;;;7.40;;
37657;SDS011;23500;53.268;8.308;2023-04-29T14:21:07;7.63;;;6.93;;
37657;SDS011;23500;53.268;8.308;2023-04-29T14:23:33;8.20;;;7.40;;
37657;SDS011;23500;53.268;8.308;2023-04-29T14:25:58;8.65;;;7.50;;
37657;SDS011;23500;53.268;8.308;2023-04-29T14:28:24;8.15;;;7.35;;
37657;SDS011;23500;53.268;8.308;2023-04-29T14:30:50;8.93;;;8.07;;
37657;SDS011;23500;53.268;8.308;2023-04-29T14:33:16;8.63;;;7.80;;
37657;SDS011;23500;53.268;8.308;2023-04-29T14:35:41;8.82;;;7.93;;
37657;SDS011;23500;53.268;8.308;2023-04-29T14:38:07;9.60;;;7.85;;
37657;SDS011;23500;53.268;8.308;2023-04-29T14:40:33;9.00;;;8.20;;
37657;SDS011;23500;53.268;8.308;2023-04-29T14:42:58;8.93;;;8.02;;
37657;SDS011;23500;53.268;8.308;2023-04-29T14:45:25;9.32;;;8.48;;
37657;SDS011;23500;53.268;8.308;2023-04-29T14:47:52;9.43;;;8.18;;
37657;SDS011;23500;53.268;8.308;2023-04-29T14:50:17;8.50;;;7.68;;
37657;SDS011;23500;53.268;8.308;2023-04-29T14:52:43;8.52;;;7.72;;
37657;SDS011;23500;53.268;8.308;2023-04-29T14:55:09;9.52;;;8.30;;